sensor_id;sensor_type;location;lat;lon;timestamp;P1;durP1;ratioP1;P2;durP2;ratioP2
24681;SDS011;12802;53.390;-2.328;2023-01-15T00:01:33;2.90;;;1.10;;
24681;SDS011;12802;53.390;-2.328;2023-01-15T00:04:00;9.98;;;1.40;;
24681;SDS011;12802;53.390;-2.328;2023-01-15T00:06:31;4.45;;;1.40;;
24681;SDS011;12802;53.390;-2.328;2023-01-15T00:11:25;2.58;;;1.08;;
24681;SDS011;12802;53.390;-2.328;2023-01-15T00:13:51;13.45;;;1.83;;
24681;SDS011;12802;53.390;-2.328;2023-01-15T00:16:18;9.93;;;1.73;;
24681;SDS011;12802;53.390;-2.328;2023-01-15T00:18:56;6.55;;;1.02;;
24681;SDS011;12802;53.390;-2.328;2023-01-15T00:21:26;7.93;;;1.75;;
24681;SDS011;12802;53.390;-2.328;2023-01-15T00:23:53;7.38;;;1.40;;
24681;SDS011;12802;53.390;-2.328;2023-01-15T00:26:37;4.03;;;0.85;;
24681;SDS011;12802;53.390;-2.328;2023-01-15T00:29:23;7.53;;;1.52;;
24681;SDS011;12802;53.390;-2.328;2023-01-15T00:31:59;2.67;;;0.95;;
24681;SDS011;12802;53.390;-2.328;2023-01-15T00:34:28;2.22;;;1.40;;
24681;SDS011;12802;53.390;-2.328;2023-01-15T00:36:55;2.67;;;1.30;;
24681;SDS011;12802;53.390;-2.328;2023-01-15T00:39:21;9.05;;;1.05;;
24681;SDS011;12802;53.390;-2.328;2023-01-15T00:41:48;4.05;;;0.90;;
24681;SDS011;12802;53.390;-2.328;2023-01-15T00:44:14;4.25;;;0.93;;
24681;SDS011;12802;53.390;-2.328;2023-01-15T00:46:40;3.95;;;1.30;;
24681;SDS011;12802;53.390;-2.328;2023-01-15T00:49:06;2.63;;;1.33;;
24681;SDS011;12802;53.390;-2.328;2023-01-15T00:51:33;3.10;;;1.30;;
24681;SDS011;12802;53.390;-2.328;2023-01-15T00:53:59;3.22;;;1.35;;
24681;SDS011;12802;53.390;-2.328;2023-01-15T00:56:24;5.45;;;1.48;;
24681;SDS011;12802;53.390;-2.328;2023-01-15T00:58:50;2.80;;;0.98;;
24681;SDS011;12802;53.390;-2.328;2023-01-15T01:01:16;5.72;;;1.77;;
24681;SDS011;12802;53.390;-2.328;2023-01-15T01:03:43;6.32;;;1.08;;
24681;SDS011;12802;53.390;-2.328;2023-01-15T01:06:13;5.72;;;1.15;;
24681;SDS011;12802;53.390;-2.328;2023-01-15T01:08:41;2.28;;;0.98;;
24681;SDS011;12802;53.390;-2.328;2023-01-15T01:11:08;4.03;;;1.27;;
24681;SDS011;12802;53.390;-2.328;2023-01-15T01:13:35;4.63;;;0.88;;
24681;SDS011;12802;53.390;-2.328;2023-01-15T01:16:02;8.57;;;1.58;;
24681;SDS011;12802;53.390;-2.328;2023-01-15T01:18:29;2.38;;;0.80;;
24681;SDS011;12802;53.390;-2.328;2023-01-15T01:20:55;3.88;;;0.85;;
24681;SDS011;12802;53.390;-2.328;2023-01-15T01:23:21;5.20;;;1.23;;
24681;SDS011;12802;53.390;-2.328;2023-01-15T01:25:48;4.68;;;1.15;;
24681;SDS011;12802;53.390;-2.328;2023-01-15T01:28:14;7.93;;;1.58;;
24681;SDS011;12802;53.390;-2.328;2023-01-15T01:30:41;4.47;;;1.17;;
24681;SDS011;12802;53.390;-2.328;2023-01-15T01:33:07;1.95;;;0.60;;
24681;SDS011;12802;53.390;-2.328;2023-01-15T01:35:33;3.17;;;0.98;;
24681;SDS011;12802;53.390;-2.328;2023-01-15T01:37:59;9.85;;;1.15;;
24681;SDS011;12802;53.390;-2.328;2023-01-15T01:40:24;2.20;;;0.85;;
24681;SDS011;12802;53.390;-2.328;2023-01-15T01:42:50;4.97;;;1.33;;
24681;SDS011;12802;53.390;-2.328;2023-01-15T01:47:55;1.35;;;0.60;;
24681;SDS011;12802;53.390;-2.328;2023-01-15T01:50:26;3.55;;;1.05;;
24681;SDS011;12802;53.390;-2.328;2023-01-15T01:53:02;4.60;;;0.95;;
24681;SDS011;12802;53.390;-2.328;2023-01-15T01:55:31;4.18;;;0.93;;
24681;SDS011;12802;53.390;-2.328;2023-01-15T01:57:59;1.90;;;1.17;;
24681;SDS011;12802;53.390;-2.328;2023-01-15T02:00:29;8.38;;;1.77;;
24681;SDS011;12802;53.390;-2.328;2023-01-15T02:02:56;9.88;;;1.30;;
24681;SDS011;12802;53.390;-2.328;2023-01-15T02:05:30;11.05;;;1.00;;
24681;SDS011;12802;53.390;-2.328;2023-01-15T02:07:58;7.30;;;1.25;;
24681;SDS011;12802;53.390;-2.328;2023-01-15T02:10:25;6.65;;;1.23;;
24681;SDS011;12802;53.390;-2.328;2023-01-15T02:16:10;5.60;;;1.70;;
24681;SDS011;12802;53.390;-2.328;2023-01-15T02:18:54;0.85;;;0.75;;
24681;SDS011;12802;53.390;-2.328;2023-01-15T02:27:19;2.45;;;0.77;;
24681;SDS011;12802;53.390;-2.328;2023-01-15T02:30:05;5.63;;;0.90;;
24681;SDS011;12802;53.390;-2.328;2023-01-15T02:32:45;3.10;;;1.15;;
24681;SDS011;12802;53.390;-2.328;2023-01-15T02:35:18;2.80;;;1.45;;
24681;SDS011;12802;53.390;-2.328;2023-01-15T02:37:49;3.83;;;1.05;;
24681;SDS011;12802;53.390;-2.328;2023-01-15T02:40:21;5.03;;;1.25;;
24681;SDS011;12802;53.390;-2.328;2023-01-15T02:42:49;2.38;;;1.17;;
24681;SDS011;12802;53.390;-2.328;2023-01-15T02:45:21;2.50;;;0.73;;
24681;SDS011;12802;53.390;-2.328;2023-01-15T02:47:51;5.32;;;1.40;;
24681;SDS011;12802;53.390;-2.328;2023-01-15T02:52:53;5.90;;;0.75;;
24681;SDS011;12802;53.390;-2.328;2023-01-15T02:55:31;7.07;;;1.17;;
24681;SDS011;12802;53.390;-2.328;2023-01-15T02:58:03;4.78;;;1.30;;
24681;SDS011;12802;53.390;-2.328;2023-01-15T03:00:34;1.40;;;0.90;;
24681;SDS011;12802;53.390;-2.328;2023-01-15T03:03:09;1.27;;;0.80;;
24681;SDS011;12802;53.390;-2.328;2023-01-15T03:05:42;5.25;;;1.20;;
24681;SDS011;12802;53.390;-2.328;2023-01-15T03:08:16;9.52;;;1.42;;
24681;SDS011;12802;53.390;-2.328;2023-01-15T03:13:09;1.77;;;1.10;;
24681;SDS011;12802;53.390;-2.328;2023-01-15T03:16:00;9.35;;;1.40;;
24681;SDS011;12802;53.390;-2.328;2023-01-15T03:21:40;11.07;;;1.15;;
24681;SDS011;12802;53.390;-2.328;2023-01-15T03:24:14;5.43;;;1.33;;
24681;SDS011;12802;53.390;-2.328;2023-01-15T03:26:53;11.68;;;1.58;;
24681;SDS011;12802;53.390;-2.328;2023-01-15T03:29:21;4.63;;;1.25;;
24681;SDS011;12802;53.390;-2.328;2023-01-15T03:31:51;6.82;;;1.15;;
24681;SDS011;12802;53.390;-2.328;2023-01-15T03:34:18;6.65;;;1.40;;
24681;SDS011;12802;53.390;-2.328;2023-01-15T03:36:44;6.50;;;1.15;;
24681;SDS011;12802;53.390;-2.328;2023-01-15T03:39:10;7.88;;;1.13;;
24681;SDS011;12802;53.390;-2.328;2023-01-15T03:45:25;1.88;;;0.73;;
24681;SDS011;12802;53.390;-2.328;2023-01-15T03:48:01;2.65;;;1.08;;
24681;SDS011;12802;53.390;-2.328;2023-01-15T03:50:58;10.02;;;1.10;;
24681;SDS011;12802;53.390;-2.328;2023-01-15T03:53:35;6.53;;;1.38;;
24681;SDS011;12802;53.390;-2.328;2023-01-15T03:56:11;8.30;;;1.48;;
24681;SDS011;12802;53.390;-2.328;2023-01-15T04:01:20;8.00;;;1.40;;
24681;SDS011;12802;53.390;-2.328;2023-01-15T04:03:51;3.75;;;0.60;;
24681;SDS011;12802;53.390;-2.328;2023-01-15T04:06:22;1.42;;;0.75;;
24681;SDS011;12802;53.390;-2.328;2023-01-15T04:08:50;2.75;;;0.75;;
24681;SDS011;12802;53.390;-2.328;2023-01-15T04:11:22;6.75;;;1.05;;
24681;SDS011;12802;53.390;-2.328;2023-01-15T04:13:51;1.45;;;0.90;;
24681;SDS011;12802;53.390;-2.328;2023-01-15T04:16:31;6.72;;;0.85;;
24681;SDS011;12802;53.390;-2.328;2023-01-15T04:18:57;2.55;;;1.15;;
24681;SDS011;12802;53.390;-2.328;2023-01-15T04:21:24;1.77;;;0.60;;
24681;SDS011;12802;53.390;-2.328;2023-01-15T04:23:50;11.73;;;1.25;;
24681;SDS011;12802;53.390;-2.328;2023-01-15T04:26:16;2.15;;;0.98;;
24681;SDS011;12802;53.390;-2.328;2023-01-15T04:28:42;3.47;;;0.90;;
24681;SDS011;12802;53.390;-2.328;2023-01-15T04:31:08;2.17;;;0.80;;
24681;SDS011;12802;53.390;-2.328;2023-01-15T04:33:34;3.05;;;0.88;;
24681;SDS011;12802;53.390;-2.328;2023-01-15T04:36:01;1.42;;;0.85;;
24681;SDS011;12802;53.390;-2.328;2023-01-15T04:38:27;4.45;;;0.85;;
24681;SDS011;12802;53.390;-2.328;2023-01-15T04:40:53;2.53;;;0.80;;
24681;SDS011;12802;53.390;-2.328;2023-01-15T04:43:38;1.48;;;0.68;;
24681;SDS011;12802;53.390;-2.328;2023-01-15T04:46:22;3.22;;;0.82;;
24681;SDS011;12802;53.390;-2.328;2023-01-15T04:48:49;3.10;;;0.70;;
24681;SDS011;12802;53.390;-2.328;2023-01-15T04:51:15;4.95;;;1.30;;
24681;SDS011;12802;53.390;-2.328;2023-01-15T04:53:42;1.77;;;0.47;;
24681;SDS011;12802;53.390;-2.328;2023-01-15T04:56:08;2.20;;;1.23;;
24681;SDS011;12802;53.390;-2.328;2023-01-15T04:58:34;1.45;;;0.45;;
24681;SDS011;12802;53.390;-2.328;2023-01-15T05:01:00;8.10;;;1.20;;
24681;SDS011;12802;53.390;-2.328;2023-01-15T05:03:28;3.33;;;0.95;;
24681;SDS011;12802;53.390;-2.328;2023-01-15T05:05:59;1.65;;;0.68;;
24681;SDS011;12802;53.390;-2.328;2023-01-15T05:08:26;0.80;;;0.40;;
24681;SDS011;12802;53.390;-2.328;2023-01-15T05:10:53;5.55;;;1.00;;
24681;SDS011;12802;53.390;-2.328;2023-01-15T05:13:19;5.50;;;0.82;;
24681;SDS011;12802;53.390;-2.328;2023-01-15T05:15:44;5.43;;;0.77;;
24681;SDS011;12802;53.390;-2.328;2023-01-15T05:18:12;1.58;;;0.90;;
24681;SDS011;12802;53.390;-2.328;2023-01-15T05:20:42;1.50;;;0.77;;
24681;SDS011;12802;53.390;-2.328;2023-01-15T05:23:08;0.93;;;0.60;;
24681;SDS011;12802;53.390;-2.328;2023-01-15T05:25:37;5.38;;;0.68;;
24681;SDS011;12802;53.390;-2.328;2023-01-15T05:28:02;2.08;;;0.55;;
24681;SDS011;12802;53.390;-2.328;2023-01-15T05:30:28;3.67;;;0.75;;
24681;SDS011;12802;53.390;-2.328;2023-01-15T05:32:54;0.93;;;0.45;;
24681;SDS011;12802;53.390;-2.328;2023-01-15T05:35:20;5.07;;;1.00;;
24681;SDS011;12802;53.390;-2.328;2023-01-15T05:37:46;3.17;;;0.60;;
24681;SDS011;12802;53.390;-2.328;2023-01-15T05:40:11;2.28;;;0.75;;
24681;SDS011;12802;53.390;-2.328;2023-01-15T05:42:37;1.70;;;0.47;;
24681;SDS011;12802;53.390;-2.328;2023-01-15T05:45:03;0.52;;;0.30;;
24681;SDS011;12802;53.390;-2.328;2023-01-15T05:47:29;5.30;;;0.90;;
24681;SDS011;12802;53.390;-2.328;2023-01-15T05:49:55;4.13;;;0.82;;
24681;SDS011;12802;53.390;-2.328;2023-01-15T05:52:20;2.65;;;0.43;;
24681;SDS011;12802;53.390;-2.328;2023-01-15T05:54:47;1.95;;;0.80;;
24681;SDS011;12802;53.390;-2.328;2023-01-15T05:57:13;4.00;;;0.93;;
24681;SDS011;12802;53.390;-2.328;2023-01-15T05:59:39;3.85;;;0.60;;
24681;SDS011;12802;53.390;-2.328;2023-01-15T06:02:05;11.82;;;0.88;;
24681;SDS011;12802;53.390;-2.328;2023-01-15T06:04:31;3.38;;;0.50;;
24681;SDS011;12802;53.390;-2.328;2023-01-15T06:06:57;1.30;;;0.45;;
24681;SDS011;12802;53.390;-2.328;2023-01-15T06:09:23;4.70;;;1.00;;
24681;SDS011;12802;53.390;-2.328;2023-01-15T06:11:51;4.00;;;0.57;;
24681;SDS011;12802;53.390;-2.328;2023-01-15T06:14:18;6.43;;;0.93;;
24681;SDS011;12802;53.390;-2.328;2023-01-15T06:16:44;3.47;;;0.98;;
24681;SDS011;12802;53.390;-2.328;2023-01-15T06:19:10;3.30;;;0.52;;
24681;SDS011;12802;53.390;-2.328;2023-01-15T06:21:37;3.90;;;0.82;;
24681;SDS011;12802;53.390;-2.328;2023-01-15T06:24:04;1.27;;;0.52;;
24681;SDS011;12802;53.390;-2.328;2023-01-15T06:26:30;4.35;;;1.27;;
24681;SDS011;12802;53.390;-2.328;2023-01-15T06:28:56;5.93;;;1.40;;
24681;SDS011;12802;53.390;-2.328;2023-01-15T06:31:22;7.03;;;1.20;;
24681;SDS011;12802;53.390;-2.328;2023-01-15T06:33:51;2.90;;;0.75;;
24681;SDS011;12802;53.390;-2.328;2023-01-15T06:36:18;4.18;;;1.20;;
24681;SDS011;12802;53.390;-2.328;2023-01-15T06:38:48;3.78;;;0.90;;
24681;SDS011;12802;53.390;-2.328;2023-01-15T06:41:19;2.03;;;1.10;;
24681;SDS011;12802;53.390;-2.328;2023-01-15T06:44:05;3.40;;;1.33;;
24681;SDS011;12802;53.390;-2.328;2023-01-15T06:46:53;2.97;;;1.00;;
24681;SDS011;12802;53.390;-2.328;2023-01-15T06:49:37;5.15;;;0.70;;
24681;SDS011;12802;53.390;-2.328;2023-01-15T06:52:04;4.72;;;1.13;;
24681;SDS011;12802;53.390;-2.328;2023-01-15T06:54:30;1.77;;;0.80;;
24681;SDS011;12802;53.390;-2.328;2023-01-15T06:56:56;5.82;;;1.17;;
24681;SDS011;12802;53.390;-2.328;2023-01-15T06:59:22;3.95;;;1.60;;
24681;SDS011;12802;53.390;-2.328;2023-01-15T07:01:47;6.28;;;1.42;;
24681;SDS011;12802;53.390;-2.328;2023-01-15T07:04:13;3.58;;;1.15;;
24681;SDS011;12802;53.390;-2.328;2023-01-15T07:06:40;4.00;;;1.35;;
24681;SDS011;12802;53.390;-2.328;2023-01-15T07:09:06;2.20;;;1.05;;
24681;SDS011;12802;53.390;-2.328;2023-01-15T07:11:32;5.95;;;2.38;;
24681;SDS011;12802;53.390;-2.328;2023-01-15T07:13:58;7.68;;;1.35;;
24681;SDS011;12802;53.390;-2.328;2023-01-15T07:16:33;8.57;;;1.80;;
24681;SDS011;12802;53.390;-2.328;2023-01-15T07:18:59;4.72;;;1.38;;
24681;SDS011;12802;53.390;-2.328;2023-01-15T07:21:26;11.32;;;2.03;;
24681;SDS011;12802;53.390;-2.328;2023-01-15T07:23:52;3.20;;;1.13;;
24681;SDS011;12802;53.390;-2.328;2023-01-15T07:26:19;4.88;;;1.90;;
24681;SDS011;12802;53.390;-2.328;2023-01-15T07:28:44;7.00;;;1.65;;
24681;SDS011;12802;53.390;-2.328;2023-01-15T07:31:10;3.92;;;1.30;;
24681;SDS011;12802;53.390;-2.328;2023-01-15T07:33:36;9.25;;;1.20;;
24681;SDS011;12802;53.390;-2.328;2023-01-15T07:36:02;5.50;;;1.38;;
24681;SDS011;12802;53.390;-2.328;2023-01-15T07:38:28;8.85;;;1.77;;
24681;SDS011;12802;53.390;-2.328;2023-01-15T07:40:55;3.55;;;1.33;;
24681;SDS011;12802;53.390;-2.328;2023-01-15T07:43:39;4.75;;;1.60;;
24681;SDS011;12802;53.390;-2.328;2023-01-15T07:46:24;5.15;;;1.30;;
24681;SDS011;12802;53.390;-2.328;2023-01-15T07:49:11;5.95;;;1.02;;
24681;SDS011;12802;53.390;-2.328;2023-01-15T07:51:56;9.27;;;1.75;;
24681;SDS011;12802;53.390;-2.328;2023-01-15T07:54:22;12.65;;;2.03;;
24681;SDS011;12802;53.390;-2.328;2023-01-15T07:56:48;4.15;;;1.48;;
24681;SDS011;12802;53.390;-2.328;2023-01-15T07:59:15;14.55;;;1.75;;
24681;SDS011;12802;53.390;-2.328;2023-01-15T08:01:41;2.80;;;0.98;;
24681;SDS011;12802;53.390;-2.328;2023-01-15T08:04:07;2.70;;;1.05;;
24681;SDS011;12802;53.390;-2.328;2023-01-15T08:06:34;12.65;;;1.75;;
24681;SDS011;12802;53.390;-2.328;2023-01-15T08:09:00;6.10;;;1.48;;
24681;SDS011;12802;53.390;-2.328;2023-01-15T08:11:26;4.90;;;1.23;;
24681;SDS011;12802;53.390;-2.328;2023-01-15T08:14:10;1.98;;;0.85;;
24681;SDS011;12802;53.390;-2.328;2023-01-15T08:16:55;6.20;;;1.05;;
24681;SDS011;12802;53.390;-2.328;2023-01-15T08:19:20;9.20;;;1.10;;
24681;SDS011;12802;53.390;-2.328;2023-01-15T08:21:49;2.75;;;0.88;;
24681;SDS011;12802;53.390;-2.328;2023-01-15T08:24:16;8.07;;;1.05;;
24681;SDS011;12802;53.390;-2.328;2023-01-15T08:26:41;4.53;;;1.02;;
24681;SDS011;12802;53.390;-2.328;2023-01-15T08:29:07;7.18;;;0.85;;
24681;SDS011;12802;53.390;-2.328;2023-01-15T08:31:33;7.38;;;1.73;;
24681;SDS011;12802;53.390;-2.328;2023-01-15T08:33:59;1.83;;;0.88;;
24681;SDS011;12802;53.390;-2.328;2023-01-15T08:36:25;4.07;;;0.98;;
24681;SDS011;12802;53.390;-2.328;2023-01-15T08:38:51;4.90;;;1.27;;
24681;SDS011;12802;53.390;-2.328;2023-01-15T08:41:16;4.63;;;1.52;;
24681;SDS011;12802;53.390;-2.328;2023-01-15T08:43:42;7.32;;;1.00;;
24681;SDS011;12802;53.390;-2.328;2023-01-15T08:46:09;1.83;;;0.98;;
24681;SDS011;12802;53.390;-2.328;2023-01-15T08:48:36;1.88;;;1.05;;
24681;SDS011;12802;53.390;-2.328;2023-01-15T08:51:03;4.05;;;1.15;;
24681;SDS011;12802;53.390;-2.328;2023-01-15T08:53:29;4.65;;;1.38;;
24681;SDS011;12802;53.390;-2.328;2023-01-15T08:55:55;9.25;;;1.13;;
24681;SDS011;12802;53.390;-2.328;2023-01-15T08:58:21;2.30;;;0.77;;
24681;SDS011;12802;53.390;-2.328;2023-01-15T09:00:47;3.47;;;1.10;;
24681;SDS011;12802;53.390;-2.328;2023-01-15T09:03:13;4.38;;;1.05;;
24681;SDS011;12802;53.390;-2.328;2023-01-15T09:05:39;10.80;;;1.20;;
24681;SDS011;12802;53.390;-2.328;2023-01-15T09:08:05;1.63;;;0.90;;
24681;SDS011;12802;53.390;-2.328;2023-01-15T09:10:32;7.00;;;0.80;;
24681;SDS011;12802;53.390;-2.328;2023-01-15T09:12:59;0.80;;;0.55;;
24681;SDS011;12802;53.390;-2.328;2023-01-15T09:15:28;5.75;;;1.08;;
24681;SDS011;12802;53.390;-2.328;2023-01-15T09:17:55;4.78;;;0.95;;
24681;SDS011;12802;53.390;-2.328;2023-01-15T09:20:21;6.88;;;1.17;;
24681;SDS011;12802;53.390;-2.328;2023-01-15T09:22:47;1.08;;;0.60;;
24681;SDS011;12802;53.390;-2.328;2023-01-15T09:25:13;3.70;;;1.35;;
24681;SDS011;12802;53.390;-2.328;2023-01-15T09:27:44;3.38;;;1.33;;
24681;SDS011;12802;53.390;-2.328;2023-01-15T09:30:15;4.50;;;0.70;;
24681;SDS011;12802;53.390;-2.328;2023-01-15T09:32:43;5.32;;;1.40;;
24681;SDS011;12802;53.390;-2.328;2023-01-15T09:35:09;5.07;;;1.08;;
24681;SDS011;12802;53.390;-2.328;2023-01-15T09:37:35;1.90;;;1.00;;
24681;SDS011;12802;53.390;-2.328;2023-01-15T09:40:01;4.45;;;0.50;;
24681;SDS011;12802;53.390;-2.328;2023-01-15T09:42:31;4.60;;;1.50;;
24681;SDS011;12802;53.390;-2.328;2023-01-15T09:56:29;2.58;;;1.02;;
24681;SDS011;12802;53.390;-2.328;2023-01-15T09:58:59;2.17;;;1.15;;
24681;SDS011;12802;53.390;-2.328;2023-01-15T10:01:30;2.75;;;1.45;;
24681;SDS011;12802;53.390;-2.328;2023-01-15T10:04:03;1.95;;;0.95;;
24681;SDS011;12802;53.390;-2.328;2023-01-15T10:11:46;0.98;;;0.57;;
24681;SDS011;12802;53.390;-2.328;2023-01-15T10:14:39;10.23;;;1.27;;
24681;SDS011;12802;53.390;-2.328;2023-01-15T10:17:13;2.95;;;0.98;;
24681;SDS011;12802;53.390;-2.328;2023-01-15T10:19:52;3.63;;;1.05;;
24681;SDS011;12802;53.390;-2.328;2023-01-15T10:24:47;2.90;;;1.27;;
24681;SDS011;12802;53.390;-2.328;2023-01-15T10:27:21;1.75;;;0.93;;
24681;SDS011;12802;53.390;-2.328;2023-01-15T10:29:50;2.25;;;0.85;;
24681;SDS011;12802;53.390;-2.328;2023-01-15T10:45:49;3.65;;;1.23;;
24681;SDS011;12802;53.390;-2.328;2023-01-15T10:51:18;6.97;;;1.92;;
24681;SDS011;12802;53.390;-2.328;2023-01-15T10:53:55;5.82;;;1.60;;
24681;SDS011;12802;53.390;-2.328;2023-01-15T10:59:14;4.28;;;1.58;;
24681;SDS011;12802;53.390;-2.328;2023-01-15T11:04:16;12.75;;;1.52;;
24681;SDS011;12802;53.390;-2.328;2023-01-15T11:06:42;7.03;;;1.45;;
24681;SDS011;12802;53.390;-2.328;2023-01-15T11:09:14;4.30;;;1.38;;
24681;SDS011;12802;53.390;-2.328;2023-01-15T11:11:47;1.08;;;0.77;;
24681;SDS011;12802;53.390;-2.328;2023-01-15T11:14:37;8.57;;;1.23;;
24681;SDS011;12802;53.390;-2.328;2023-01-15T11:17:24;7.25;;;1.67;;
24681;SDS011;12802;53.390;-2.328;2023-01-15T11:20:28;8.00;;;1.77;;
24681;SDS011;12802;53.390;-2.328;2023-01-15T11:22:56;5.50;;;2.05;;
24681;SDS011;12802;53.390;-2.328;2023-01-15T11:25:31;5.57;;;1.30;;
24681;SDS011;12802;53.390;-2.328;2023-01-15T11:27:59;8.77;;;1.42;;
24681;SDS011;12802;53.390;-2.328;2023-01-15T11:30:30;5.47;;;0.98;;
24681;SDS011;12802;53.390;-2.328;2023-01-15T11:33:03;2.35;;;0.93;;
24681;SDS011;12802;53.390;-2.328;2023-01-15T11:35:32;4.53;;;1.25;;
24681;SDS011;12802;53.390;-2.328;2023-01-15T11:40:28;2.65;;;1.17;;
24681;SDS011;12802;53.390;-2.328;2023-01-15T11:42:54;4.68;;;1.90;;
24681;SDS011;12802;53.390;-2.328;2023-01-15T11:45:48;6.60;;;1.60;;
24681;SDS011;12802;53.390;-2.328;2023-01-15T11:48:43;8.15;;;2.13;;
24681;SDS011;12802;53.390;-2.328;2023-01-15T11:51:30;3.45;;;1.20;;
24681;SDS011;12802;53.390;-2.328;2023-01-15T11:54:06;5.25;;;1.50;;
24681;SDS011;12802;53.390;-2.328;2023-01-15T11:56:35;7.18;;;1.65;;
24681;SDS011;12802;53.390;-2.328;2023-01-15T11:59:08;2.78;;;1.20;;
24681;SDS011;12802;53.390;-2.328;2023-01-15T12:01:36;6.65;;;1.38;;
24681;SDS011;12802;53.390;-2.328;2023-01-15T12:07:22;2.80;;;1.05;;
24681;SDS011;12802;53.390;-2.328;2023-01-15T12:15:51;4.03;;;1.15;;
24681;SDS011;12802;53.390;-2.328;2023-01-15T12:18:35;8.10;;;1.52;;
24681;SDS011;12802;53.390;-2.328;2023-01-15T12:29:36;1.88;;;1.20;;
24681;SDS011;12802;53.390;-2.328;2023-01-15T12:32:10;3.67;;;1.20;;
24681;SDS011;12802;53.390;-2.328;2023-01-15T12:34:53;5.53;;;1.98;;
24681;SDS011;12802;53.390;-2.328;2023-01-15T12:37:25;3.30;;;1.35;;
24681;SDS011;12802;53.390;-2.328;2023-01-15T12:39:58;4.70;;;1.30;;
24681;SDS011;12802;53.390;-2.328;2023-01-15T12:42:31;5.45;;;1.73;;
24681;SDS011;12802;53.390;-2.328;2023-01-15T12:45:28;3.20;;;1.35;;
24681;SDS011;12802;53.390;-2.328;2023-01-15T12:48:04;9.35;;;1.75;;
24681;SDS011;12802;53.390;-2.328;2023-01-15T12:50:53;5.70;;;1.30;;
24681;SDS011;12802;53.390;-2.328;2023-01-15T13:04:33;7.57;;;2.10;;
24681;SDS011;12802;53.390;-2.328;2023-01-15T13:07:21;10.10;;;2.53;;
24681;SDS011;12802;53.390;-2.328;2023-01-15T13:09:55;20.50;;;2.75;;
24681;SDS011;12802;53.390;-2.328;2023-01-15T13:12:26;9.13;;;2.83;;
24681;SDS011;12802;53.390;-2.328;2023-01-15T13:14:54;11.98;;;2.53;;
24681;SDS011;12802;53.390;-2.328;2023-01-15T13:22:51;12.35;;;2.83;;
24681;SDS011;12802;53.390;-2.328;2023-01-15T13:33:57;5.22;;;2.33;;
24681;SDS011;12802;53.390;-2.328;2023-01-15T13:36:32;9.07;;;2.22;;
24681;SDS011;12802;53.390;-2.328;2023-01-15T13:39:06;6.63;;;2.15;;
24681;SDS011;12802;53.390;-2.328;2023-01-15T13:41:39;16.20;;;3.90;;
24681;SDS011;12802;53.390;-2.328;2023-01-15T13:44:25;15.00;;;2.38;;
24681;SDS011;12802;53.390;-2.328;2023-01-15T13:47:00;10.13;;;3.20;;
24681;SDS011;12802;53.390;-2.328;2023-01-15T13:49:52;6.80;;;2.33;;
24681;SDS011;12802;53.390;-2.328;2023-01-15T13:52:25;6.38;;;1.80;;
24681;SDS011;12802;53.390;-2.328;2023-01-15T13:54:54;2.63;;;1.55;;
24681;SDS011;12802;53.390;-2.328;2023-01-15T13:57:33;8.20;;;2.35;;
24681;SDS011;12802;53.390;-2.328;2023-01-15T14:00:04;11.02;;;3.05;;
24681;SDS011;12802;53.390;-2.328;2023-01-15T14:02:55;4.70;;;2.40;;
24681;SDS011;12802;53.390;-2.328;2023-01-15T14:07:47;14.05;;;2.47;;
24681;SDS011;12802;53.390;-2.328;2023-01-15T14:26:30;5.82;;;1.67;;
24681;SDS011;12802;53.390;-2.328;2023-01-15T14:32:08;10.73;;;2.28;;
24681;SDS011;12802;53.390;-2.328;2023-01-15T14:35:00;9.02;;;1.35;;
24681;SDS011;12802;53.390;-2.328;2023-01-15T14:37:29;11.90;;;2.30;;
24681;SDS011;12802;53.390;-2.328;2023-01-15T14:40:00;6.07;;;2.25;;
24681;SDS011;12802;53.390;-2.328;2023-01-15T14:42:30;3.97;;;1.73;;
24681;SDS011;12802;53.390;-2.328;2023-01-15T14:45:23;2.78;;;1.45;;
24681;SDS011;12802;53.390;-2.328;2023-01-15T14:53:13;5.43;;;1.75;;
24681;SDS011;12802;53.390;-2.328;2023-01-15T14:55:55;2.85;;;1.58;;
24681;SDS011;12802;53.390;-2.328;2023-01-15T15:06:58;9.32;;;1.55;;
24681;SDS011;12802;53.390;-2.328;2023-01-15T15:10:32;6.07;;;1.55;;
24681;SDS011;12802;53.390;-2.328;2023-01-15T15:23:37;11.10;;;1.60;;
24681;SDS011;12802;53.390;-2.328;2023-01-15T15:26:27;2.45;;;1.38;;
24681;SDS011;12802;53.390;-2.328;2023-01-15T15:29:14;5.53;;;1.30;;
24681;SDS011;12802;53.390;-2.328;2023-01-15T15:31:45;8.20;;;2.03;;
24681;SDS011;12802;53.390;-2.328;2023-01-15T15:36:53;4.47;;;1.55;;
24681;SDS011;12802;53.390;-2.328;2023-01-15T15:39:24;4.45;;;1.27;;
24681;SDS011;12802;53.390;-2.328;2023-01-15T15:41:54;4.15;;;1.40;;
24681;SDS011;12802;53.390;-2.328;2023-01-15T15:44:58;4.50;;;1.65;;
24681;SDS011;12802;53.390;-2.328;2023-01-15T15:47:43;3.97;;;1.52;;
24681;SDS011;12802;53.390;-2.328;2023-01-15T15:50:32;3.75;;;1.70;;
24681;SDS011;12802;53.390;-2.328;2023-01-15T15:52:59;9.48;;;2.08;;
24681;SDS011;12802;53.390;-2.328;2023-01-15T15:55:37;5.65;;;1.98;;
24681;SDS011;12802;53.390;-2.328;2023-01-15T15:58:05;5.65;;;1.65;;
24681;SDS011;12802;53.390;-2.328;2023-01-15T16:00:39;21.02;;;2.28;;
24681;SDS011;12802;53.390;-2.328;2023-01-15T16:03:14;6.72;;;2.03;;
24681;SDS011;12802;53.390;-2.328;2023-01-15T16:05:54;7.90;;;1.70;;
24681;SDS011;12802;53.390;-2.328;2023-01-15T16:08:25;2.42;;;1.60;;
24681;SDS011;12802;53.390;-2.328;2023-01-15T16:10:54;7.85;;;2.05;;
24681;SDS011;12802;53.390;-2.328;2023-01-15T16:13:30;8.68;;;1.90;;
24681;SDS011;12802;53.390;-2.328;2023-01-15T16:16:06;6.50;;;2.08;;
24681;SDS011;12802;53.390;-2.328;2023-01-15T16:18:34;8.65;;;2.25;;
24681;SDS011;12802;53.390;-2.328;2023-01-15T16:21:06;3.70;;;1.67;;
24681;SDS011;12802;53.390;-2.328;2023-01-15T16:23:32;2.40;;;1.58;;
24681;SDS011;12802;53.390;-2.328;2023-01-15T16:26:00;9.40;;;2.80;;
24681;SDS011;12802;53.390;-2.328;2023-01-15T16:28:56;3.75;;;2.00;;
24681;SDS011;12802;53.390;-2.328;2023-01-15T16:31:24;10.88;;;2.63;;
24681;SDS011;12802;53.390;-2.328;2023-01-15T16:33:53;5.38;;;2.20;;
24681;SDS011;12802;53.390;-2.328;2023-01-15T16:36:21;14.15;;;4.65;;
24681;SDS011;12802;53.390;-2.328;2023-01-15T16:38:48;21.65;;;4.97;;
24681;SDS011;12802;53.390;-2.328;2023-01-15T16:41:19;12.90;;;3.70;;
24681;SDS011;12802;53.390;-2.328;2023-01-15T16:44:00;8.35;;;3.60;;
24681;SDS011;12802;53.390;-2.328;2023-01-15T16:46:29;9.70;;;3.72;;
24681;SDS011;12802;53.390;-2.328;2023-01-15T16:51:45;12.60;;;3.03;;
24681;SDS011;12802;53.390;-2.328;2023-01-15T16:59:54;7.53;;;3.15;;
24681;SDS011;12802;53.390;-2.328;2023-01-15T17:02:21;6.75;;;3.08;;
24681;SDS011;12802;53.390;-2.328;2023-01-15T17:04:47;15.82;;;2.92;;
24681;SDS011;12802;53.390;-2.328;2023-01-15T17:07:18;13.70;;;3.72;;
24681;SDS011;12802;53.390;-2.328;2023-01-15T17:09:56;6.00;;;3.45;;
24681;SDS011;12802;53.390;-2.328;2023-01-15T17:17:42;17.33;;;5.63;;
24681;SDS011;12802;53.390;-2.328;2023-01-15T17:22:45;13.82;;;5.22;;
24681;SDS011;12802;53.390;-2.328;2023-01-15T17:27:56;8.30;;;4.43;;
24681;SDS011;12802;53.390;-2.328;2023-01-15T17:30:24;5.90;;;3.28;;
24681;SDS011;12802;53.390;-2.328;2023-01-15T17:33:04;9.18;;;3.55;;
24681;SDS011;12802;53.390;-2.328;2023-01-15T17:35:35;8.73;;;3.35;;
24681;SDS011;12802;53.390;-2.328;2023-01-15T17:38:03;9.20;;;3.85;;
24681;SDS011;12802;53.390;-2.328;2023-01-15T17:40:30;7.40;;;3.75;;
24681;SDS011;12802;53.390;-2.328;2023-01-15T17:42:57;9.23;;;3.08;;
24681;SDS011;12802;53.390;-2.328;2023-01-15T17:45:24;5.18;;;3.35;;
24681;SDS011;12802;53.390;-2.328;2023-01-15T17:47:51;9.02;;;3.60;;
24681;SDS011;12802;53.390;-2.328;2023-01-15T17:50:18;4.63;;;2.83;;
24681;SDS011;12802;53.390;-2.328;2023-01-15T17:52:44;6.32;;;3.35;;
24681;SDS011;12802;53.390;-2.328;2023-01-15T17:55:11;6.05;;;3.75;;
24681;SDS011;12802;53.390;-2.328;2023-01-15T17:57:56;18.48;;;3.97;;
24681;SDS011;12802;53.390;-2.328;2023-01-15T18:00:40;5.90;;;4.05;;